createdAt,value
2022-11-12T00:01:12.418Z,6.40
2022-11-12T00:03:40.473Z,6.40
2022-11-12T00:06:08.919Z,6.40
2022-11-12T00:08:37.556Z,6.40
2022-11-12T00:11:07.323Z,6.30
2022-11-12T00:13:35.323Z,6.30
2022-11-12T00:16:05.744Z,6.30
2022-11-12T00:18:33.859Z,6.40
2022-11-12T00:21:01.883Z,6.30
2022-11-12T00:23:29.966Z,6.40
2022-11-12T00:26:01.696Z,6.40
2022-11-12T00:28:36.367Z,6.40
2022-11-12T00:31:10.571Z,6.30
2022-11-12T00:33:41.839Z,6.30
2022-11-12T00:36:10.479Z,6.20
2022-11-12T00:38:38.634Z,6.20
2022-11-12T00:41:07.023Z,6.30
2022-11-12T00:43:36.408Z,6.20
2022-11-12T00:46:04.533Z,6.30
2022-11-12T00:48:32.659Z,6.30
2022-11-12T00:51:02.108Z,6.30
2022-11-12T00:53:30.228Z,6.30
2022-11-12T00:56:02.195Z,6.30
2022-11-12T00:58:31.227Z,6.40
2022-11-12T01:01:06.946Z,6.30
2022-11-12T01:03:35.108Z,6.30
2022-11-12T01:06:04.682Z,6.40
2022-11-12T01:08:32.860Z,6.50
2022-11-12T01:11:07.618Z,6.50
2022-11-12T01:13:38.868Z,6.50
2022-11-12T01:16:14.759Z,6.40
2022-11-12T01:18:43.661Z,6.40
2022-11-12T01:21:12.257Z,6.40
2022-11-12T01:23:42.364Z,6.50
2022-11-12T01:26:12.659Z,6.50
2022-11-12T01:28:41.089Z,6.50
2022-11-12T01:31:16.313Z,6.40
2022-11-12T01:33:46.646Z,6.40
2022-11-12T01:36:16.365Z,6.40
2022-11-12T01:38:45.706Z,6.40
2022-11-12T01:41:16.054Z,6.30
2022-11-12T01:43:44.390Z,6.20
2022-11-12T01:46:18.783Z,6.20
2022-11-12T01:48:53.187Z,6.20
2022-11-12T01:51:22.670Z,6.20
2022-11-12T01:53:54.429Z,6.10
2022-11-12T01:56:24.932Z,6.10
2022-11-12T01:58:57.611Z,6.00
2022-11-12T02:01:27.431Z,6.00
2022-11-12T02:03:55.931Z,6.00
2022-11-12T02:06:24.840Z,6.00
2022-11-12T02:08:53.118Z,6.00
2022-11-12T02:11:22.451Z,6.00
2022-11-12T02:13:58.199Z,6.10
2022-11-12T02:16:30.283Z,6.10
2022-11-12T02:18:58.456Z,6.10
2022-11-12T02:21:28.506Z,6.20
2022-11-12T02:24:00.609Z,6.10
2022-11-12T02:26:31.396Z,6.20
2022-11-12T02:28:59.439Z,6.10
2022-11-12T02:31:27.781Z,6.10
2022-11-12T02:33:56.172Z,6.10
2022-11-12T02:36:24.765Z,6.00
2022-11-12T02:38:54.195Z,6.00
2022-11-12T02:41:22.313Z,6.00
2022-11-12T02:43:50.726Z,5.90
2022-11-12T02:46:19.120Z,5.90
2022-11-12T02:48:47.192Z,5.90
2022-11-12T02:51:15.331Z,5.90
2022-11-12T02:53:43.456Z,5.90
2022-11-12T02:56:12.885Z,5.90
2022-11-12T02:58:40.888Z,6.10
2022-11-12T03:01:09.061Z,6.10
2022-11-12T03:03:37.128Z,6.10
2022-11-12T03:06:05.554Z,6.30
2022-11-12T03:08:33.608Z,6.30
2022-11-12T03:11:07.528Z,6.50
2022-11-12T03:13:36.993Z,6.50
2022-11-12T03:16:05.528Z,6.60
2022-11-12T03:18:33.597Z,6.60
2022-11-12T03:21:01.820Z,6.40
2022-11-12T03:23:29.900Z,6.60
2022-11-12T03:25:58.069Z,6.60
2022-11-12T03:28:26.389Z,6.60
2022-11-12T03:30:58.985Z,6.40
2022-11-12T03:33:27.221Z,6.40
2022-11-12T03:35:55.455Z,6.40
2022-11-12T03:38:24.090Z,6.50
2022-11-12T03:40:52.372Z,6.40
2022-11-12T03:43:20.436Z,6.40
2022-11-12T03:45:48.531Z,6.30
2022-11-12T03:48:17.980Z,6.30
2022-11-12T03:50:46.082Z,6.30
2022-11-12T03:53:14.256Z,6.30
2022-11-12T03:55:42.486Z,6.30
2022-11-12T03:58:10.484Z,6.40
2022-11-12T04:00:38.573Z,6.30
2022-11-12T04:03:06.705Z,6.30
2022-11-12T04:05:53.689Z,6.30
2022-11-12T04:08:39.337Z,6.30
2022-11-12T04:11:10.200Z,6.30
2022-11-12T04:13:38.612Z,6.20
2022-11-12T04:16:26.252Z,6.20
2022-11-12T04:19:13.868Z,6.20
2022-11-12T04:21:57.463Z,6.20
2022-11-12T04:24:45.706Z,6.20
2022-11-12T04:27:16.157Z,6.20
2022-11-12T04:30:02.807Z,6.20
2022-11-12T04:32:31.714Z,6.20
2022-11-12T04:35:00.559Z,6.20
2022-11-12T04:37:47.028Z,6.20
2022-11-12T04:40:34.835Z,6.20
2022-11-12T04:43:21.828Z,6.20
2022-11-12T04:45:52.219Z,6.20
2022-11-12T04:48:20.667Z,6.20
2022-11-12T04:50:51.651Z,6.20
2022-11-12T04:53:21.418Z,6.10
2022-11-12T04:55:50.871Z,6.10
2022-11-12T04:58:19.123Z,6.10
2022-11-12T05:00:47.564Z,6.00
2022-11-12T05:03:15.614Z,6.10
2022-11-12T05:05:43.764Z,6.10
2022-11-12T05:08:11.650Z,6.10
2022-11-12T05:10:41.065Z,6.10
2022-11-12T05:13:09.127Z,6.10
2022-11-12T05:15:37.152Z,6.10
2022-11-12T05:18:05.348Z,6.00
2022-11-12T05:20:33.439Z,6.10
2022-11-12T05:23:08.731Z,6.10
2022-11-12T05:25:37.332Z,6.00
2022-11-12T05:28:07.327Z,6.00
2022-11-12T05:30:36.484Z,6.00
2022-11-12T05:33:04.715Z,5.90
2022-11-12T05:35:32.774Z,5.80
2022-11-12T05:38:00.858Z,5.70
2022-11-12T05:40:28.919Z,5.70
2022-11-12T05:42:56.998Z,5.70
2022-11-12T05:45:26.489Z,5.70
2022-11-12T05:47:54.568Z,5.60
2022-11-12T05:50:22.703Z,5.60
2022-11-12T05:52:50.744Z,5.60
2022-11-12T05:55:18.821Z,5.60
2022-11-12T05:57:46.911Z,5.60
2022-11-12T06:00:15.865Z,5.60
2022-11-12T06:02:45.367Z,5.50
2022-11-12T06:05:13.486Z,5.40
2022-11-12T06:07:41.397Z,5.40
2022-11-12T06:10:10.023Z,5.40
2022-11-12T06:12:38.080Z,5.30
2022-11-12T06:15:07.265Z,5.40
2022-11-12T06:17:35.343Z,5.40
2022-11-12T06:20:05.191Z,5.50
2022-11-12T06:22:33.648Z,5.50
2022-11-12T06:25:01.707Z,5.50
2022-11-12T06:27:29.828Z,5.40
2022-11-12T06:29:57.885Z,5.50
2022-11-12T06:32:26.388Z,5.50
2022-11-12T06:34:54.384Z,5.50
2022-11-12T06:37:23.842Z,5.50
2022-11-12T06:39:51.916Z,5.40
2022-11-12T06:42:20.075Z,5.50
2022-11-12T06:44:48.197Z,5.50
2022-11-12T06:47:17.004Z,5.50
2022-11-12T06:49:45.109Z,5.50
2022-11-12T06:52:16.551Z,5.50
2022-11-12T06:54:47.073Z,5.40
2022-11-12T06:57:15.268Z,5.30
2022-11-12T06:59:43.305Z,5.30
2022-11-12T07:02:13.617Z,5.30
2022-11-12T07:04:41.686Z,5.30
2022-11-12T07:07:11.021Z,5.40
2022-11-12T07:09:39.308Z,5.30
2022-11-12T07:12:09.835Z,5.30
2022-11-12T07:14:37.922Z,5.40
2022-11-12T07:17:05.956Z,5.40
2022-11-12T07:19:34.055Z,5.30
2022-11-12T07:22:02.091Z,5.40
2022-11-12T07:24:30.681Z,5.50
2022-11-12T07:26:58.824Z,5.50
2022-11-12T07:29:46.363Z,5.40
2022-11-12T07:32:15.596Z,5.50
2022-11-12T07:34:43.664Z,5.50
2022-11-12T07:37:11.727Z,5.50
2022-11-12T07:39:39.854Z,5.50
2022-11-12T07:42:07.881Z,5.60
2022-11-12T07:44:37.292Z,5.60
2022-11-12T07:47:05.495Z,5.80
2022-11-12T07:49:33.555Z,5.90
2022-11-12T07:52:01.640Z,5.80
2022-11-12T07:54:29.673Z,5.90
2022-11-12T07:56:57.768Z,5.90
2022-11-12T07:59:25.822Z,6.00
2022-11-12T08:01:55.352Z,6.00
2022-11-12T08:04:23.530Z,6.20
2022-11-12T08:06:53.588Z,6.20
2022-11-12T08:09:21.867Z,6.20
2022-11-12T08:11:49.955Z,6.30
2022-11-12T08:14:18.050Z,6.40
2022-11-12T08:16:46.917Z,6.50
2022-11-12T08:19:16.380Z,6.60
2022-11-12T08:21:44.663Z,6.70
2022-11-12T08:24:12.876Z,6.90
2022-11-12T08:26:40.957Z,7.10
2022-11-12T08:29:09.263Z,7.40
2022-11-12T08:31:37.405Z,7.50
2022-11-12T08:34:12.337Z,7.60
2022-11-12T08:36:41.925Z,7.70
2022-11-12T08:39:10.209Z,7.90
2022-11-12T08:41:38.304Z,8.00
2022-11-12T08:44:08.760Z,8.00
2022-11-12T08:46:37.497Z,8.10
2022-11-12T08:49:05.599Z,8.10
2022-11-12T08:51:33.676Z,8.20
2022-11-12T08:54:03.263Z,8.30
2022-11-12T08:56:31.330Z,8.40
2022-11-12T08:59:04.938Z,8.50
2022-11-12T09:01:35.479Z,8.60
2022-11-12T09:04:03.595Z,8.70
2022-11-12T09:06:31.779Z,8.80
2022-11-12T09:08:59.780Z,8.90
2022-11-12T09:11:29.188Z,9.00
2022-11-12T09:13:57.324Z,9.20
2022-11-12T09:16:25.363Z,9.30
2022-11-12T09:18:53.405Z,9.40
2022-11-12T09:21:24.776Z,9.50
2022-11-12T09:23:53.108Z,9.60
2022-11-12T09:26:21.169Z,9.70
2022-11-12T09:28:52.379Z,9.80
2022-11-12T09:31:20.457Z,9.90
2022-11-12T09:33:48.630Z,10.00
2022-11-12T09:36:17.672Z,10.10
2022-11-12T09:38:45.774Z,10.10
2022-11-12T09:41:27.269Z,10.20
2022-11-12T09:44:01.005Z,10.40
2022-11-12T09:46:41.372Z,10.50
2022-11-12T09:49:16.680Z,10.60
2022-11-12T09:51:50.789Z,10.70
2022-11-12T09:54:25.184Z,10.80
2022-11-12T09:56:54.584Z,11.00
2022-11-12T09:59:27.228Z,11.00
2022-11-12T10:02:14.141Z,11.10
2022-11-12T10:04:50.566Z,11.30
2022-11-12T10:07:44.465Z,11.40
2022-11-12T10:10:17.734Z,11.60
2022-11-12T10:12:59.922Z,11.70
2022-11-12T10:16:01.271Z,11.90
2022-11-12T10:18:48.951Z,12.00
2022-11-12T10:21:30.309Z,11.80
2022-11-12T10:23:59.161Z,11.90
2022-11-12T10:26:27.877Z,12.00
2022-11-12T10:29:03.066Z,12.30
2022-11-12T10:31:32.502Z,12.40
2022-11-12T10:34:16.709Z,12.50
2022-11-12T10:36:49.586Z,12.50
2022-11-12T10:39:35.645Z,12.50
2022-11-12T10:42:06.540Z,12.60
2022-11-12T10:44:34.647Z,12.70
2022-11-12T10:47:25.928Z,12.80
2022-11-12T10:50:17.060Z,12.80
2022-11-12T10:52:56.700Z,12.90
2022-11-12T10:55:26.595Z,12.90
2022-11-12T10:58:20.808Z,12.90
2022-11-12T11:01:02.882Z,13.10
2022-11-12T11:03:35.271Z,13.20
2022-11-12T11:06:05.766Z,13.30
2022-11-12T11:08:42.844Z,13.30
2022-11-12T11:11:23.127Z,13.40
2022-11-12T11:13:55.529Z,13.50
2022-11-12T11:16:26.479Z,13.60
2022-11-12T11:18:59.446Z,13.80
2022-11-12T11:21:45.442Z,13.80
2022-11-12T11:24:26.660Z,14.00
2022-11-12T11:27:01.580Z,14.20
2022-11-12T11:29:57.493Z,14.30
2022-11-12T11:32:38.906Z,14.50
2022-11-12T11:35:20.804Z,14.50
2022-11-12T11:38:06.443Z,14.50
2022-11-12T11:40:38.546Z,14.60
2022-11-12T11:43:23.040Z,14.60
2022-11-12T11:46:08.070Z,14.70
2022-11-12T11:48:49.755Z,14.90
2022-11-12T11:51:31.949Z,14.90
2022-11-12T11:54:14.530Z,15.00
2022-11-12T11:56:44.288Z,15.10
2022-11-12T11:59:24.144Z,15.20
2022-11-12T12:02:21.206Z,15.30
2022-11-12T12:04:51.535Z,15.30
2022-11-12T12:07:33.584Z,15.40
2022-11-12T12:10:09.467Z,15.50
2022-11-12T12:12:52.682Z,15.60
2022-11-12T12:15:33.994Z,15.70
2022-11-12T12:18:15.344Z,15.70
2022-11-12T12:20:49.203Z,15.90
2022-11-12T12:23:28.101Z,15.90
2022-11-12T12:26:00.581Z,16.00
2022-11-12T12:28:38.428Z,16.30
2022-11-12T12:31:12.305Z,16.20
2022-11-12T12:33:47.038Z,16.10
2022-11-12T12:36:19.010Z,16.30
2022-11-12T12:38:53.595Z,16.50
2022-11-12T12:41:27.912Z,16.60
2022-11-12T12:43:59.573Z,16.60
2022-11-12T12:46:31.973Z,16.70
2022-11-12T12:49:01.106Z,16.50
2022-11-12T12:51:32.108Z,16.60
2022-11-12T12:54:01.496Z,16.60
2022-11-12T12:56:49.886Z,16.60
2022-11-12T12:59:23.588Z,16.80
2022-11-12T13:01:59.860Z,16.60
2022-11-12T13:04:52.428Z,16.70
2022-11-12T13:07:38.730Z,16.70
2022-11-12T13:10:54.703Z,16.50
2022-11-12T13:13:35.207Z,16.40
2022-11-12T13:16:04.313Z,16.40
2022-11-12T13:19:00.625Z,16.40
2022-11-12T13:21:28.890Z,16.30
2022-11-12T13:24:08.263Z,16.30
2022-11-12T13:26:49.398Z,16.40
2022-11-12T13:29:23.685Z,16.20
2022-11-12T13:32:11.902Z,16.10
2022-11-12T13:34:40.377Z,16.00
2022-11-12T13:37:21.380Z,16.00
2022-11-12T13:39:49.703Z,15.90
2022-11-12T13:42:48.582Z,15.90
2022-11-12T13:45:19.350Z,15.90
2022-11-12T13:47:47.608Z,15.80
2022-11-12T13:50:18.879Z,15.80
2022-11-12T13:52:48.268Z,15.80
2022-11-12T13:55:18.110Z,15.70
2022-11-12T13:57:51.023Z,15.80
2022-11-12T14:00:26.379Z,15.70
2022-11-12T14:02:57.342Z,15.70
2022-11-12T14:05:27.767Z,15.60
2022-11-12T14:08:17.953Z,15.70
2022-11-12T14:10:58.250Z,15.70
2022-11-12T14:13:53.943Z,15.60
2022-11-12T14:16:47.770Z,15.60
2022-11-12T14:19:58.758Z,15.60
2022-11-12T14:22:29.227Z,15.60
2022-11-12T14:25:01.555Z,15.60
2022-11-12T14:27:37.371Z,15.50
2022-11-12T14:30:31.975Z,15.50
2022-11-12T14:33:08.737Z,15.40
2022-11-12T14:35:38.585Z,15.40
2022-11-12T14:38:16.458Z,15.40
2022-11-12T14:40:47.633Z,15.40
2022-11-12T14:43:36.321Z,15.30
2022-11-12T14:46:07.271Z,15.20
2022-11-12T14:48:47.188Z,15.10
2022-11-12T14:51:16.227Z,15.10
2022-11-12T14:53:47.885Z,15.00
2022-11-12T14:56:22.670Z,15.00
2022-11-12T14:58:52.018Z,14.90
2022-11-12T15:04:24.877Z,14.90
2022-11-12T15:06:54.604Z,14.70
2022-11-12T15:09:35.039Z,14.70
2022-11-12T15:12:05.149Z,14.60
2022-11-12T15:14:34.388Z,14.60
2022-11-12T15:17:05.515Z,14.50
2022-11-12T15:19:36.206Z,14.50
2022-11-12T15:22:05.519Z,14.50
2022-11-12T15:24:35.587Z,14.40
2022-11-12T15:27:35.136Z,14.40
2022-11-12T15:30:20.382Z,14.20
2022-11-12T15:32:48.675Z,14.20
2022-11-12T15:35:33.773Z,14.20
2022-11-12T15:38:04.445Z,14.10
2022-11-12T15:40:34.153Z,14.00
2022-11-12T15:43:03.179Z,13.80
2022-11-12T15:45:31.304Z,13.80
2022-11-12T15:47:59.339Z,13.70
2022-11-12T15:50:28.802Z,13.60
2022-11-12T15:52:56.834Z,13.50
2022-11-12T15:55:24.925Z,13.50
2022-11-12T15:57:54.096Z,13.50
2022-11-12T16:00:24.426Z,13.40
2022-11-12T16:02:59.254Z,13.40
2022-11-12T16:05:28.677Z,13.30
2022-11-12T16:07:56.555Z,13.30
2022-11-12T16:10:24.590Z,13.20
2022-11-12T16:12:56.140Z,13.10
2022-11-12T16:15:25.523Z,13.00
2022-11-12T16:17:54.762Z,12.90
2022-11-12T16:20:25.207Z,12.90
2022-11-12T16:22:55.726Z,12.80
2022-11-12T16:25:25.520Z,12.60
2022-11-12T16:27:55.966Z,12.60
2022-11-12T16:30:26.915Z,12.50
2022-11-12T16:32:55.125Z,12.40
2022-11-12T16:35:23.151Z,12.30
2022-11-12T16:37:53.530Z,12.20
2022-11-12T16:40:25.921Z,12.30
2022-11-12T16:42:53.990Z,12.30
2022-11-12T16:45:24.343Z,12.20
2022-11-12T16:47:53.776Z,12.20
2022-11-12T16:50:23.352Z,12.10
2022-11-12T16:52:52.781Z,11.90
2022-11-12T16:55:22.851Z,11.80
2022-11-12T16:57:51.013Z,11.80
2022-11-12T17:00:20.082Z,11.80
2022-11-12T17:02:52.261Z,11.80
2022-11-12T17:05:24.238Z,11.60
2022-11-12T17:07:56.723Z,11.50
2022-11-12T17:10:26.155Z,11.30
2022-11-12T17:12:54.292Z,11.30
2022-11-12T17:15:22.382Z,11.30
2022-11-12T17:17:50.450Z,11.40
2022-11-12T17:20:18.612Z,11.20
2022-11-12T17:22:46.775Z,11.20
2022-11-12T17:25:14.854Z,11.00
2022-11-12T17:27:44.179Z,10.90
2022-11-12T17:30:13.339Z,11.00
2022-11-12T17:32:41.402Z,10.90
2022-11-12T17:35:09.606Z,10.80
2022-11-12T17:37:37.719Z,10.70
2022-11-12T17:40:06.869Z,10.60
2022-11-12T17:42:34.989Z,10.60
2022-11-12T17:45:04.600Z,10.50
2022-11-12T17:47:36.649Z,10.40
2022-11-12T17:50:08.352Z,10.40
2022-11-12T17:52:36.387Z,10.60
2022-11-12T17:55:04.820Z,10.60
2022-11-12T17:57:32.928Z,10.70
2022-11-12T18:00:00.974Z,10.70
2022-11-12T18:02:30.408Z,10.60
2022-11-12T18:04:58.458Z,10.50
2022-11-12T18:07:26.435Z,10.40
2022-11-12T18:09:54.548Z,10.30
2022-11-12T18:12:22.566Z,10.30
2022-11-12T18:14:50.635Z,10.20
2022-11-12T18:17:18.726Z,10.10
2022-11-12T18:19:48.112Z,10.00
2022-11-12T18:22:16.221Z,10.00
2022-11-12T18:24:44.651Z,10.10
2022-11-12T18:27:12.624Z,10.00
2022-11-12T18:29:41.659Z,9.90
2022-11-12T18:32:09.881Z,9.90
2022-11-12T18:34:41.771Z,9.80
2022-11-12T18:37:11.218Z,9.70
2022-11-12T18:39:39.295Z,9.80
2022-11-12T18:42:07.850Z,9.90
2022-11-12T18:44:36.035Z,10.00
2022-11-12T18:47:04.228Z,9.90
2022-11-12T18:49:32.277Z,9.90
2022-11-12T18:52:00.406Z,9.90
2022-11-12T18:54:29.813Z,9.80
2022-11-12T18:56:57.824Z,9.80
2022-11-12T18:59:30.632Z,9.80
2022-11-12T19:01:59.168Z,9.70
2022-11-12T19:04:27.304Z,9.70
2022-11-12T19:06:55.391Z,9.60
2022-11-12T19:09:23.554Z,9.50
2022-11-12T19:11:52.994Z,9.50
2022-11-12T19:14:21.146Z,9.60
2022-11-12T19:16:49.331Z,9.80
2022-11-12T19:19:17.727Z,9.70
2022-11-12T19:21:46.614Z,9.80
2022-11-12T19:24:14.729Z,9.70
2022-11-12T19:26:43.077Z,9.70
2022-11-12T19:29:12.490Z,9.70
2022-11-12T19:31:40.894Z,9.60
2022-11-12T19:34:09.237Z,9.60
2022-11-12T19:36:37.330Z,9.70
2022-11-12T19:39:05.432Z,9.60
2022-11-12T19:41:33.587Z,9.60
2022-11-12T19:44:01.615Z,9.60
2022-11-12T19:46:31.765Z,9.50
2022-11-12T19:49:00.031Z,9.40
2022-11-12T19:51:28.446Z,9.40
2022-11-12T19:53:56.500Z,9.40
2022-11-12T19:56:25.057Z,9.40
2022-11-12T19:58:55.049Z,9.40
2022-11-12T20:01:23.205Z,9.30
2022-11-12T20:03:52.752Z,9.30
2022-11-12T20:06:23.396Z,9.30
2022-11-12T20:08:51.581Z,9.30
2022-11-12T20:11:20.062Z,9.20
2022-11-12T20:13:48.313Z,9.20
2022-11-12T20:16:24.924Z,9.20
2022-11-12T20:18:56.255Z,9.20
2022-11-12T20:21:24.424Z,9.30
2022-11-12T20:23:52.493Z,9.20
2022-11-12T20:26:20.599Z,9.20
2022-11-12T20:28:48.795Z,9.10
2022-11-12T20:31:20.522Z,9.10
2022-11-12T20:33:49.707Z,9.00
2022-11-12T20:36:21.396Z,9.00
2022-11-12T20:38:50.610Z,9.10
2022-11-12T20:41:20.432Z,9.10
2022-11-12T20:43:48.641Z,9.10
2022-11-12T20:46:16.697Z,9.10
2022-11-12T20:48:44.897Z,9.00
2022-11-12T20:51:23.581Z,9.00
2022-11-12T20:53:59.304Z,9.10
2022-11-12T20:56:30.140Z,9.10
2022-11-12T20:58:58.606Z,9.20
2022-11-12T21:01:28.424Z,9.20
2022-11-12T21:03:57.447Z,9.20
2022-11-12T21:06:27.291Z,9.30
2022-11-12T21:08:59.479Z,9.30
2022-11-12T21:11:27.542Z,9.30
2022-11-12T21:13:55.632Z,9.30
2022-11-12T21:16:23.675Z,9.40
2022-11-12T21:18:51.719Z,9.40
2022-11-12T21:21:21.387Z,9.40
2022-11-12T21:23:51.079Z,9.40
2022-11-12T21:26:22.679Z,9.30
2022-11-12T21:28:52.312Z,9.30
2022-11-12T21:31:22.892Z,9.30
2022-11-12T21:33:51.575Z,9.30
2022-11-12T21:36:20.330Z,9.30
2022-11-12T21:38:49.047Z,9.30
2022-11-12T21:41:18.528Z,9.30
2022-11-12T21:43:48.294Z,9.20
2022-11-12T21:46:18.539Z,9.20
2022-11-12T21:48:52.220Z,9.20
2022-11-12T21:51:24.061Z,9.20
2022-11-12T21:53:55.382Z,9.10
2022-11-12T21:56:24.069Z,9.10
2022-11-12T21:58:56.058Z,9.10
2022-11-12T22:01:25.973Z,9.00
2022-11-12T22:03:55.763Z,9.00
2022-11-12T22:06:25.616Z,8.90
2022-11-12T22:08:54.616Z,8.80
2022-11-12T22:11:23.217Z,8.80
2022-11-12T22:13:52.691Z,8.70
2022-11-12T22:16:21.816Z,8.60
2022-11-12T22:18:51.375Z,8.60
2022-11-12T22:21:21.007Z,8.50
2022-11-12T22:23:49.138Z,8.50
2022-11-12T22:26:20.597Z,8.50
2022-11-12T22:28:49.127Z,8.40
2022-11-12T22:31:20.539Z,8.50
2022-11-12T22:33:48.780Z,8.50
2022-11-12T22:36:18.107Z,8.50
2022-11-12T22:38:48.136Z,8.50
2022-11-12T22:41:17.930Z,8.50
2022-11-12T22:43:48.636Z,8.40
2022-11-12T22:46:19.945Z,8.40
2022-11-12T22:48:48.074Z,8.30
2022-11-12T22:51:17.750Z,8.20
2022-11-12T22:53:45.894Z,8.20
2022-11-12T22:56:16.057Z,8.20
2022-11-12T22:58:45.839Z,8.10
2022-11-12T23:01:21.523Z,8.00
2022-11-12T23:03:50.617Z,8.00
2022-11-12T23:06:19.567Z,8.00
2022-11-12T23:08:47.708Z,8.00
2022-11-12T23:11:17.673Z,7.90
2022-11-12T23:13:46.219Z,7.90
2022-11-12T23:16:16.731Z,7.90
2022-11-12T23:18:46.910Z,7.80
2022-11-12T23:21:16.745Z,7.80
2022-11-12T23:23:44.994Z,7.90
2022-11-12T23:26:15.214Z,7.90
2022-11-12T23:28:43.350Z,7.90
2022-11-12T23:31:13.162Z,7.80
2022-11-12T23:33:46.208Z,7.80
2022-11-12T23:36:14.624Z,7.80
2022-11-12T23:38:43.289Z,7.80
2022-11-12T23:41:12.673Z,7.70
2022-11-12T23:43:40.666Z,7.70
2022-11-12T23:46:08.920Z,7.80
2022-11-12T23:48:37.160Z,7.70
2022-11-12T23:51:10.651Z,7.70
2022-11-12T23:53:39.389Z,7.70
2022-11-12T23:56:09.674Z,7.60
2022-11-12T23:58:38.047Z,7.50
